sensor_id;sensor_type;location;lat;lon;timestamp;pressure;altitude;pressure_sealevel;temperature;humidity
48774;BME280;34576;0.000;0.000;2023-05-25T00:00:17;96860.84;;;18.69;70.22
48774;BME280;34576;0.000;0.000;2023-05-25T00:07:19;96858.16;;;18.69;69.90
48774;BME280;34576;0.000;0.000;2023-05-25T00:14:20;96856.84;;;18.67;69.92
48774;BME280;34576;0.000;0.000;2023-05-25T00:21:20;96851.25;;;18.68;69.90
48774;BME280;34576;0.000;0.000;2023-05-25T00:28:21;96840.84;;;18.67;70.17
48774;BME280;34576;0.000;0.000;2023-05-25T00:35:21;96845.69;;;18.65;69.76
48774;BME280;34576;0.000;0.000;2023-05-25T00:42:22;96843.00;;;18.65;70.07
48774;BME280;34576;0.000;0.000;2023-05-25T00:49:23;96831.28;;;18.66;69.98
48774;BME280;34576;0.000;0.000;2023-05-25T00:56:25;96828.63;;;18.66;69.98
48774;BME280;34576;0.000;0.000;2023-05-25T01:03:30;96830.75;;;18.63;70.12
48774;BME280;34576;0.000;0.000;2023-05-25T01:10:33;96821.16;;;18.62;70.09
48774;BME280;34576;0.000;0.000;2023-05-25T01:17:35;96817.44;;;18.63;69.97
48774;BME280;34576;0.000;0.000;2023-05-25T01:24:39;96822.25;;;18.61;70.13
48774;BME280;34576;0.000;0.000;2023-05-25T01:31:43;96820.66;;;18.60;70.32
48774;BME280;34576;0.000;0.000;2023-05-25T01:38:44;96814.25;;;18.61;70.15
48774;BME280;34576;0.000;0.000;2023-05-25T01:45:45;96823.81;;;18.62;70.28
48774;BME280;34576;0.000;0.000;2023-05-25T01:59:55;96817.22;;;18.60;70.62
48774;BME280;34576;0.000;0.000;2023-05-25T02:07:04;96812.09;;;18.63;70.26
48774;BME280;34576;0.000;0.000;2023-05-25T02:14:05;96804.94;;;18.59;70.29
48774;BME280;34576;0.000;0.000;2023-05-25T02:21:05;96802.19;;;18.74;69.65
48774;BME280;34576;0.000;0.000;2023-05-25T02:28:07;96799.03;;;18.67;69.96
48774;BME280;34576;0.000;0.000;2023-05-25T02:35:07;96796.13;;;18.63;69.98
48774;BME280;34576;0.000;0.000;2023-05-25T02:42:08;96785.47;;;18.63;70.14
48774;BME280;34576;0.000;0.000;2023-05-25T02:49:08;96783.88;;;18.62;70.14
48774;BME280;34576;0.000;0.000;2023-05-25T02:56:10;96780.69;;;18.60;69.84
48774;BME280;34576;0.000;0.000;2023-05-25T03:03:11;96793.47;;;18.63;69.92
48774;BME280;34576;0.000;0.000;2023-05-25T03:10:11;96800.94;;;18.61;69.85
48774;BME280;34576;0.000;0.000;2023-05-25T03:17:12;96813.72;;;18.59;69.81
48774;BME280;34576;0.000;0.000;2023-05-25T03:24:13;96814.25;;;18.61;69.83
48774;BME280;34576;0.000;0.000;2023-05-25T03:31:14;96814.25;;;18.61;69.92
48774;BME280;34576;0.000;0.000;2023-05-25T03:38:15;96810.00;;;18.60;69.60
48774;BME280;34576;0.000;0.000;2023-05-25T03:45:16;96813.34;;;18.82;70.94
48774;BME280;34576;0.000;0.000;2023-05-25T03:52:17;96813.31;;;18.87;71.75
48774;BME280;34576;0.000;0.000;2023-05-25T03:59:17;96818.91;;;18.85;72.07
48774;BME280;34576;0.000;0.000;2023-05-25T04:06:17;96818.91;;;18.85;72.44
48774;BME280;34576;0.000;0.000;2023-05-25T04:13:18;96816.78;;;18.87;73.08
48774;BME280;34576;0.000;0.000;2023-05-25T04:20:18;96821.31;;;18.87;73.21
48774;BME280;34576;0.000;0.000;2023-05-25T04:27:19;96814.38;;;18.86;69.78
48774;BME280;34576;0.000;0.000;2023-05-25T04:34:20;96813.38;;;18.26;62.60
48774;BME280;34576;0.000;0.000;2023-05-25T04:41:27;96830.84;;;16.95;57.76
48774;BME280;34576;0.000;0.000;2023-05-25T04:48:32;96837.03;;;15.74;54.35
48774;BME280;34576;0.000;0.000;2023-05-25T04:55:33;96826.16;;;15.70;52.03
48774;BME280;34576;0.000;0.000;2023-05-25T05:02:34;96831.63;;;16.01;52.30
48774;BME280;34576;0.000;0.000;2023-05-25T05:09:34;96823.91;;;17.66;57.71
48774;BME280;34576;0.000;0.000;2023-05-25T05:16:36;96836.69;;;17.74;59.43
48774;BME280;34576;0.000;0.000;2023-05-25T05:23:37;96844.09;;;17.88;60.88
48774;BME280;34576;0.000;0.000;2023-05-25T05:30:37;96854.50;;;17.94;61.71
48774;BME280;34576;0.000;0.000;2023-05-25T05:37:38;96853.94;;;17.98;62.42
48774;BME280;34576;0.000;0.000;2023-05-25T05:44:39;96850.75;;;18.01;62.87
48774;BME280;34576;0.000;0.000;2023-05-25T05:51:40;96852.56;;;18.05;62.89
48774;BME280;34576;0.000;0.000;2023-05-25T05:58:41;96844.31;;;18.07;63.25
48774;BME280;34576;0.000;0.000;2023-05-25T06:05:41;96837.94;;;18.08;63.36
48774;BME280;34576;0.000;0.000;2023-05-25T06:12:42;96839.53;;;18.09;63.67
48774;BME280;34576;0.000;0.000;2023-05-25T06:19:43;96846.19;;;18.11;64.33
48774;BME280;34576;0.000;0.000;2023-05-25T06:26:44;96839.00;;;18.12;64.01
48774;BME280;34576;0.000;0.000;2023-05-25T06:33:44;96838.19;;;18.11;64.51
48774;BME280;34576;0.000;0.000;2023-05-25T06:40:45;96837.66;;;18.15;64.83
48774;BME280;34576;0.000;0.000;2023-05-25T06:47:45;96843.22;;;18.18;64.79
48774;BME280;34576;0.000;0.000;2023-05-25T06:54:45;96857.06;;;18.20;64.83
48774;BME280;34576;0.000;0.000;2023-05-25T07:01:46;96867.16;;;18.23;64.75
48774;BME280;34576;0.000;0.000;2023-05-25T07:08:46;96870.91;;;18.22;64.83
48774;BME280;34576;0.000;0.000;2023-05-25T07:15:46;96869.03;;;18.23;64.81
48774;BME280;34576;0.000;0.000;2023-05-25T07:22:47;96881.00;;;18.25;65.17
48774;BME280;34576;0.000;0.000;2023-05-25T07:29:47;96888.97;;;18.25;65.02
48774;BME280;34576;0.000;0.000;2023-05-25T07:36:47;96898.31;;;18.28;64.91
48774;BME280;34576;0.000;0.000;2023-05-25T07:43:48;96901.50;;;18.25;64.80
48774;BME280;34576;0.000;0.000;2023-05-25T07:50:48;96899.63;;;18.25;64.07
48774;BME280;34576;0.000;0.000;2023-05-25T07:57:48;96918.53;;;18.29;64.36
48774;BME280;34576;0.000;0.000;2023-05-25T08:04:49;96918.28;;;18.25;64.01
48774;BME280;34576;0.000;0.000;2023-05-25T08:11:49;96911.34;;;18.29;64.08
48774;BME280;34576;0.000;0.000;2023-05-25T08:18:49;96908.41;;;18.31;64.59
48774;BME280;34576;0.000;0.000;2023-05-25T08:25:50;96909.47;;;18.35;64.56
48774;BME280;34576;0.000;0.000;2023-05-25T08:32:51;96901.19;;;18.37;64.90
48774;BME280;34576;0.000;0.000;2023-05-25T08:39:51;96904.91;;;18.41;64.71
48774;BME280;34576;0.000;0.000;2023-05-25T08:46:51;96916.38;;;18.41;64.86
48774;BME280;34576;0.000;0.000;2023-05-25T08:53:55;96936.31;;;18.44;64.52
48774;BME280;34576;0.000;0.000;2023-05-25T09:00:59;96932.59;;;18.45;64.67
48774;BME280;34576;0.000;0.000;2023-05-25T09:08:04;96947.53;;;18.46;64.21
48774;BME280;34576;0.000;0.000;2023-05-25T09:15:11;96951.78;;;18.47;64.73
48774;BME280;34576;0.000;0.000;2023-05-25T09:22:12;96952.03;;;18.51;64.41
48774;BME280;34576;0.000;0.000;2023-05-25T09:29:13;96962.69;;;18.51;64.68
48774;BME280;34576;0.000;0.000;2023-05-25T09:36:14;96980.00;;;18.48;64.80
48774;BME280;34576;0.000;0.000;2023-05-25T09:43:15;96980.53;;;18.50;64.92
48774;BME280;34576;0.000;0.000;2023-05-25T09:50:15;96979.72;;;18.50;64.84
48774;BME280;34576;0.000;0.000;2023-05-25T09:57:18;96981.59;;;18.49;64.81
48774;BME280;34576;0.000;0.000;2023-05-25T10:04:18;96994.38;;;18.52;64.84
48774;BME280;34576;0.000;0.000;2023-05-25T10:11:20;97001.31;;;18.53;65.04
48774;BME280;34576;0.000;0.000;2023-05-25T10:18:23;97004.75;;;18.54;65.02
48774;BME280;34576;0.000;0.000;2023-05-25T10:25:28;97002.09;;;18.54;65.08
48774;BME280;34576;0.000;0.000;2023-05-25T10:32:30;97003.97;;;18.53;65.29
48774;BME280;34576;0.000;0.000;2023-05-25T10:39:31;97007.16;;;18.55;65.12
48774;BME280;34576;0.000;0.000;2023-05-25T10:46:33;97009.81;;;18.55;65.36
48774;BME280;34576;0.000;0.000;2023-05-25T10:53:33;97010.63;;;18.56;65.20
48774;BME280;34576;0.000;0.000;2023-05-25T11:00:33;97023.41;;;18.59;65.48
48774;BME280;34576;0.000;0.000;2023-05-25T11:07:34;97017.28;;;18.58;65.63
48774;BME280;34576;0.000;0.000;2023-05-25T11:29:17;97022.06;;;18.61;65.37
48774;BME280;34576;0.000;0.000;2023-05-25T11:36:19;97025.81;;;18.60;65.42
48774;BME280;34576;0.000;0.000;2023-05-25T11:43:22;97028.19;;;18.62;65.15
48774;BME280;34576;0.000;0.000;2023-05-25T11:50:24;97017.25;;;18.63;65.18
48774;BME280;34576;0.000;0.000;2023-05-25T11:57:24;97020.75;;;18.64;65.19
48774;BME280;34576;0.000;0.000;2023-05-25T12:04:25;97017.81;;;18.66;65.46
48774;BME280;34576;0.000;0.000;2023-05-25T12:11:29;97019.38;;;18.67;65.20
48774;BME280;34576;0.000;0.000;2023-05-25T12:18:30;97017.25;;;18.69;65.18
48774;BME280;34576;0.000;0.000;2023-05-25T12:25:30;97010.84;;;18.70;65.19
48774;BME280;34576;0.000;0.000;2023-05-25T12:32:31;97006.06;;;18.72;65.18
48774;BME280;34576;0.000;0.000;2023-05-25T12:39:33;97007.66;;;18.73;65.16
48774;BME280;34576;0.000;0.000;2023-05-25T12:46:34;97007.13;;;18.71;65.00
48774;BME280;34576;0.000;0.000;2023-05-25T12:53:50;96994.34;;;18.73;64.92
48774;BME280;34576;0.000;0.000;2023-05-25T13:00:51;97007.66;;;18.73;65.04
48774;BME280;34576;0.000;0.000;2023-05-25T13:07:52;96998.56;;;18.74;64.83
48774;BME280;34576;0.000;0.000;2023-05-25T13:14:52;97002.56;;;18.76;64.86
48774;BME280;34576;0.000;0.000;2023-05-25T13:21:53;96993.78;;;18.76;64.63
48774;BME280;34576;0.000;0.000;2023-05-25T13:28:56;96992.72;;;18.77;64.52
48774;BME280;34576;0.000;0.000;2023-05-25T13:35:57;96988.19;;;18.77;64.97
48774;BME280;34576;0.000;0.000;2023-05-25T13:42:57;96988.19;;;18.77;65.27
48774;BME280;34576;0.000;0.000;2023-05-25T13:49:58;96984.19;;;18.80;65.30
48774;BME280;34576;0.000;0.000;2023-05-25T13:56:58;96988.41;;;18.81;65.42
48774;BME280;34576;0.000;0.000;2023-05-25T14:04:01;96988.97;;;18.83;65.73
48774;BME280;34576;0.000;0.000;2023-05-25T14:11:04;96980.97;;;18.83;65.72
48774;BME280;34576;0.000;0.000;2023-05-25T14:18:05;96991.06;;;18.86;65.82
48774;BME280;34576;0.000;0.000;2023-05-25T14:25:07;96990.81;;;18.88;66.00
48774;BME280;34576;0.000;0.000;2023-05-25T14:32:07;96999.88;;;18.87;65.98
48774;BME280;34576;0.000;0.000;2023-05-25T14:39:08;96991.63;;;18.88;66.13
48774;BME280;34576;0.000;0.000;2023-05-25T14:46:09;96997.50;;;18.90;66.27
48774;BME280;34576;0.000;0.000;2023-05-25T14:53:10;96995.88;;;18.89;66.33
48774;BME280;34576;0.000;0.000;2023-05-25T15:00:11;96999.09;;;18.91;66.33
48774;BME280;34576;0.000;0.000;2023-05-25T15:07:11;97000.66;;;18.92;66.40
48774;BME280;34576;0.000;0.000;2023-05-25T15:14:13;97001.47;;;18.93;66.52
48774;BME280;34576;0.000;0.000;2023-05-25T15:21:18;97007.88;;;18.92;66.65
48774;BME280;34576;0.000;0.000;2023-05-25T15:28:21;97007.59;;;18.93;66.62
48774;BME280;34576;0.000;0.000;2023-05-25T15:35:22;97013.72;;;18.94;66.58
48774;BME280;34576;0.000;0.000;2023-05-25T15:42:23;97016.66;;;18.92;66.69
48774;BME280;34576;0.000;0.000;2023-05-25T15:49:23;97023.59;;;18.93;66.45
48774;BME280;34576;0.000;0.000;2023-05-25T15:56:24;97028.91;;;18.93;66.69
48774;BME280;34576;0.000;0.000;2023-05-25T16:03:25;97037.72;;;18.94;66.58
48774;BME280;34576;0.000;0.000;2023-05-25T16:10:26;97028.91;;;18.93;66.62
48774;BME280;34576;0.000;0.000;2023-05-25T16:17:26;97034.78;;;18.95;66.77
48774;BME280;34576;0.000;0.000;2023-05-25T16:24:27;97031.31;;;18.95;66.51
48774;BME280;34576;0.000;0.000;2023-05-25T16:31:27;97032.13;;;18.95;66.73
48774;BME280;34576;0.000;0.000;2023-05-25T16:38:28;97040.13;;;18.95;66.67
48774;BME280;34576;0.000;0.000;2023-05-25T16:45:28;97033.72;;;18.96;66.61
48774;BME280;34576;0.000;0.000;2023-05-25T16:52:29;97039.03;;;18.96;66.60
48774;BME280;34576;0.000;0.000;2023-05-25T16:59:30;97032.91;;;18.96;66.67
48774;BME280;34576;0.000;0.000;2023-05-25T17:06:30;97043.59;;;18.96;66.35
48774;BME280;34576;0.000;0.000;2023-05-25T17:13:31;97046.25;;;18.96;65.95
48774;BME280;34576;0.000;0.000;2023-05-25T17:20:32;97048.91;;;18.96;65.97
48774;BME280;34576;0.000;0.000;2023-05-25T17:27:32;97055.03;;;18.96;65.98
48774;BME280;34576;0.000;0.000;2023-05-25T17:34:32;97055.03;;;18.96;66.14
48774;BME280;34576;0.000;0.000;2023-05-25T17:41:32;97067.31;;;18.97;66.23
48774;BME280;34576;0.000;0.000;2023-05-25T17:48:33;97069.97;;;18.97;66.16
48774;BME280;34576;0.000;0.000;2023-05-25T17:55:34;97074.50;;;18.97;66.35
48774;BME280;34576;0.000;0.000;2023-05-25T18:02:35;97079.84;;;18.97;66.06
48774;BME280;34576;0.000;0.000;2023-05-25T18:09:35;97078.50;;;18.94;65.40
48774;BME280;34576;0.000;0.000;2023-05-25T18:16:36;97088.34;;;18.94;65.37
48774;BME280;34576;0.000;0.000;2023-05-25T18:23:38;97082.25;;;18.93;65.61
48774;BME280;34576;0.000;0.000;2023-05-25T18:30:39;97094.50;;;18.94;65.66
48774;BME280;34576;0.000;0.000;2023-05-25T18:37:40;97087.56;;;18.93;65.63
48774;BME280;34576;0.000;0.000;2023-05-25T18:44:40;97093.69;;;18.94;65.52
48774;BME280;34576;0.000;0.000;2023-05-25T18:51:41;97103.56;;;18.93;66.01
48774;BME280;34576;0.000;0.000;2023-05-25T18:58:42;97106.22;;;18.93;66.12
48774;BME280;34576;0.000;0.000;2023-05-25T19:05:42;97111.56;;;18.93;66.27
48774;BME280;34576;0.000;0.000;2023-05-25T19:12:42;97105.44;;;18.93;66.18
48774;BME280;34576;0.000;0.000;2023-05-25T19:19:42;97102.22;;;18.96;67.31
48774;BME280;34576;0.000;0.000;2023-05-25T19:26:43;97112.09;;;18.95;66.80
48774;BME280;34576;0.000;0.000;2023-05-25T19:33:43;97126.50;;;18.94;66.63
48774;BME280;34576;0.000;0.000;2023-05-25T19:40:44;97129.16;;;18.94;65.42
48774;BME280;34576;0.000;0.000;2023-05-25T19:47:45;97139.81;;;18.94;65.45
48774;BME280;34576;0.000;0.000;2023-05-25T19:54:45;97150.75;;;18.93;65.04
48774;BME280;34576;0.000;0.000;2023-05-25T20:01:46;97157.66;;;18.94;65.45
48774;BME280;34576;0.000;0.000;2023-05-25T20:08:46;97163.28;;;18.97;65.55
48774;BME280;34576;0.000;0.000;2023-05-25T20:15:47;97169.16;;;18.94;65.93
48774;BME280;34576;0.000;0.000;2023-05-25T20:22:47;97178.22;;;18.93;66.25
48774;BME280;34576;0.000;0.000;2023-05-25T20:29:48;97183.25;;;18.95;66.28
48774;BME280;34576;0.000;0.000;2023-05-25T20:36:49;97184.09;;;18.95;66.30
48774;BME280;34576;0.000;0.000;2023-05-25T20:43:52;97181.41;;;18.95;66.12
48774;BME280;34576;0.000;0.000;2023-05-25T20:50:52;97181.16;;;18.97;66.48
48774;BME280;34576;0.000;0.000;2023-05-25T20:57:53;97184.34;;;18.99;66.62
48774;BME280;34576;0.000;0.000;2023-05-25T21:05:03;97186.22;;;18.99;66.58
48774;BME280;34576;0.000;0.000;2023-05-25T21:12:04;97196.88;;;18.99;66.61
48774;BME280;34576;0.000;0.000;2023-05-25T21:19:04;97191.78;;;19.02;66.28
48774;BME280;34576;0.000;0.000;2023-05-25T21:26:05;97193.66;;;19.02;66.31
48774;BME280;34576;0.000;0.000;2023-05-25T21:33:05;97197.94;;;19.03;66.53
48774;BME280;34576;0.000;0.000;2023-05-25T21:40:05;97204.06;;;19.03;66.49
48774;BME280;34576;0.000;0.000;2023-05-25T21:47:06;97200.59;;;19.03;66.43
48774;BME280;34576;0.000;0.000;2023-05-25T21:54:06;97212.31;;;19.12;66.89
48774;BME280;34576;0.000;0.000;2023-05-25T22:01:06;97201.13;;;19.05;66.71
48774;BME280;34576;0.000;0.000;2023-05-25T22:08:07;97197.41;;;19.06;67.04
48774;BME280;34576;0.000;0.000;2023-05-25T22:15:07;97206.44;;;19.05;66.77
48774;BME280;34576;0.000;0.000;2023-05-25T22:22:08;97204.84;;;19.04;67.02
48774;BME280;34576;0.000;0.000;2023-05-25T22:29:08;97203.00;;;19.04;67.10
48774;BME280;34576;0.000;0.000;2023-05-25T22:36:10;97204.06;;;19.03;67.16
48774;BME280;34576;0.000;0.000;2023-05-25T22:43:12;97205.13;;;19.02;67.34
48774;BME280;34576;0.000;0.000;2023-05-25T22:50:12;97198.44;;;19.05;67.36
48774;BME280;34576;0.000;0.000;2023-05-25T22:57:12;97197.94;;;19.03;67.34
48774;BME280;34576;0.000;0.000;2023-05-25T23:04:13;97190.47;;;19.05;67.24
48774;BME280;34576;0.000;0.000;2023-05-25T23:11:13;97187.28;;;19.03;67.00
48774;BME280;34576;0.000;0.000;2023-05-25T23:18:14;97187.28;;;19.03;67.37
48774;BME280;34576;0.000;0.000;2023-05-25T23:25:14;97179.53;;;19.01;67.34
48774;BME280;34576;0.000;0.000;2023-05-25T23:32:14;97185.66;;;19.02;67.67
48774;BME280;34576;0.000;0.000;2023-05-25T23:39:15;97185.66;;;19.02;67.29
48774;BME280;34576;0.000;0.000;2023-05-25T23:46:15;97188.84;;;19.04;67.70
48774;BME280;34576;0.000;0.000;2023-05-25T23:53:16;97195.22;;;19.18;67.38
